Airfield :







YOU CAN JOIN US ON...

 
LOGIN :

Register | Disclaimer

   EN    FR    IT 

 









Legend :    VFR   Marginal VFR   IFR   Intensive IFR   Very Intensive IFR
Visi :
Ceiling :
>= 8 km
>= 3000ft
5 to 8 km
1000 to 3000 ft
1500m to 5 km
500 to 1000 ft
800 to 1500m
200 to 500 ft
< 800m
< 200 ft
Symbols :   Thunderstorms  Fog  Heavy snow  Heavy precipitations  Wind > 20 kt






- Airport Elevation : 787 ft
- IATA code : RUT


KRUT - Rutland - Southern Vermont Regional

CURRENT METAR :
  • 280056Z AUTO 14003KT 10SM CLR 25/19 A3011 RMK AO2 SLP187 T02500194 $

EXPIRED METARs :
  • 272356Z AUTO 12004KT 9SM FEW065 28/18 A3010 RMK AO2 SLP184 60001 T02780183 10317 20278 53004 $
  • 272256Z AUTO 27007KT 10SM OVC060 30/19 A3009 RMK AO2 SLP179 T03000189 $

TAF KRUT
Valid from the 28 at 00:00 until the 29 at 00:00 UTC


272334Z 2800/2824 VRB03KT P6SM BKN200
FM281800 21007KT P6SM BKN035
KZBW FIR / North America



MET'MAP, your aeronautical weather chart ! - Copyright ORBIFLY December 2007 - Disclaimer

ORBIFLY MET'MAP TEAM :

Programming & Development : Alexandra Zaïnal
Concept & original design : Baudouin d'Aumeries
Assistance for programming : Marc-Olivier Méhu
Technical & hardware support : Manuel Goepfert

Contact : metmap@orbifly.com




SOURCES & CREDITS :

   NOAA